sensor_id;sensor_type;location;lat;lon;timestamp;P1;durP1;ratioP1;P2;durP2;ratioP2
60873;SDS011;46715;40.642;-7.920;2023-05-23T00:00:46;11.47;;;6.47;;
60873;SDS011;46715;40.642;-7.920;2023-05-23T00:02:47;8.35;;;6.43;;
60873;SDS011;46715;40.642;-7.920;2023-05-23T00:04:48;6.25;;;4.95;;
60873;SDS011;46715;40.642;-7.920;2023-05-23T00:06:50;6.40;;;5.00;;
60873;SDS011;46715;40.642;-7.920;2023-05-23T00:08:53;6.20;;;4.95;;
60873;SDS011;46715;40.642;-7.920;2023-05-23T00:10:54;8.10;;;5.50;;
60873;SDS011;46715;40.642;-7.920;2023-05-23T00:12:54;6.50;;;5.30;;
60873;SDS011;46715;40.642;-7.920;2023-05-23T00:14:57;6.95;;;4.97;;
60873;SDS011;46715;40.642;-7.920;2023-05-23T00:16:58;6.03;;;5.18;;
60873;SDS011;46715;40.642;-7.920;2023-05-23T00:19:00;5.45;;;4.75;;
60873;SDS011;46715;40.642;-7.920;2023-05-23T00:21:01;7.57;;;4.97;;
60873;SDS011;46715;40.642;-7.920;2023-05-23T00:25:05;7.85;;;5.07;;
60873;SDS011;46715;40.642;-7.920;2023-05-23T00:27:07;10.70;;;5.60;;
60873;SDS011;46715;40.642;-7.920;2023-05-23T00:29:07;5.82;;;4.70;;
60873;SDS011;46715;40.642;-7.920;2023-05-23T00:31:18;6.68;;;5.15;;
60873;SDS011;46715;40.642;-7.920;2023-05-23T00:33:18;5.80;;;4.00;;
60873;SDS011;46715;40.642;-7.920;2023-05-23T00:35:21;5.75;;;4.95;;
60873;SDS011;46715;40.642;-7.920;2023-05-23T00:39:24;6.10;;;4.53;;
60873;SDS011;46715;40.642;-7.920;2023-05-23T00:41:25;7.53;;;4.87;;
60873;SDS011;46715;40.642;-7.920;2023-05-23T00:43:26;6.07;;;5.00;;
60873;SDS011;46715;40.642;-7.920;2023-05-23T00:45:27;7.07;;;5.33;;
60873;SDS011;46715;40.642;-7.920;2023-05-23T00:47:28;6.30;;;5.35;;
60873;SDS011;46715;40.642;-7.920;2023-05-23T00:49:29;10.17;;;5.30;;
60873;SDS011;46715;40.642;-7.920;2023-05-23T00:51:30;5.30;;;4.80;;
60873;SDS011;46715;40.642;-7.920;2023-05-23T00:53:34;7.90;;;5.47;;
60873;SDS011;46715;40.642;-7.920;2023-05-23T00:55:38;6.53;;;5.03;;
60873;SDS011;46715;40.642;-7.920;2023-05-23T00:57:39;7.28;;;5.00;;
60873;SDS011;46715;40.642;-7.920;2023-05-23T00:59:44;6.82;;;5.28;;
60873;SDS011;46715;40.642;-7.920;2023-05-23T01:01:47;6.10;;;4.47;;
60873;SDS011;46715;40.642;-7.920;2023-05-23T01:03:51;5.28;;;4.68;;
60873;SDS011;46715;40.642;-7.920;2023-05-23T01:05:52;5.15;;;4.65;;
60873;SDS011;46715;40.642;-7.920;2023-05-23T01:09:54;6.88;;;4.80;;
60873;SDS011;46715;40.642;-7.920;2023-05-23T01:14:11;6.15;;;4.00;;
60873;SDS011;46715;40.642;-7.920;2023-05-23T01:18:51;6.80;;;4.13;;
60873;SDS011;46715;40.642;-7.920;2023-05-23T01:21:37;4.50;;;3.20;;
60873;SDS011;46715;40.642;-7.920;2023-05-23T01:28:20;6.45;;;3.65;;
60873;SDS011;46715;40.642;-7.920;2023-05-23T01:30:27;4.75;;;3.10;;
60873;SDS011;46715;40.642;-7.920;2023-05-23T01:32:31;3.63;;;3.33;;
60873;SDS011;46715;40.642;-7.920;2023-05-23T01:34:34;3.97;;;3.35;;
60873;SDS011;46715;40.642;-7.920;2023-05-23T01:36:40;7.07;;;3.03;;
60873;SDS011;46715;40.642;-7.920;2023-05-23T01:38:42;4.38;;;2.58;;
60873;SDS011;46715;40.642;-7.920;2023-05-23T01:40:43;3.17;;;2.33;;
60873;SDS011;46715;40.642;-7.920;2023-05-23T01:42:44;2.60;;;2.30;;
60873;SDS011;46715;40.642;-7.920;2023-05-23T01:44:45;3.15;;;2.38;;
60873;SDS011;46715;40.642;-7.920;2023-05-23T01:46:47;2.85;;;1.98;;
60873;SDS011;46715;40.642;-7.920;2023-05-23T01:48:48;3.38;;;2.25;;
60873;SDS011;46715;40.642;-7.920;2023-05-23T01:50:50;3.60;;;2.20;;
60873;SDS011;46715;40.642;-7.920;2023-05-23T01:52:52;3.10;;;2.10;;
60873;SDS011;46715;40.642;-7.920;2023-05-23T01:54:53;3.78;;;2.65;;
60873;SDS011;46715;40.642;-7.920;2023-05-23T01:56:56;2.58;;;1.80;;
60873;SDS011;46715;40.642;-7.920;2023-05-23T01:58:57;2.63;;;2.22;;
60873;SDS011;46715;40.642;-7.920;2023-05-23T02:00:58;4.25;;;2.20;;
60873;SDS011;46715;40.642;-7.920;2023-05-23T02:02:59;4.90;;;2.50;;
60873;SDS011;46715;40.642;-7.920;2023-05-23T02:05:01;5.67;;;2.47;;
60873;SDS011;46715;40.642;-7.920;2023-05-23T02:07:03;3.75;;;2.22;;
60873;SDS011;46715;40.642;-7.920;2023-05-23T02:11:06;3.85;;;2.72;;
60873;SDS011;46715;40.642;-7.920;2023-05-23T02:13:08;2.92;;;2.10;;
60873;SDS011;46715;40.642;-7.920;2023-05-23T02:15:09;4.13;;;2.40;;
60873;SDS011;46715;40.642;-7.920;2023-05-23T02:17:11;3.45;;;2.10;;
60873;SDS011;46715;40.642;-7.920;2023-05-23T02:19:15;2.90;;;2.05;;
60873;SDS011;46715;40.642;-7.920;2023-05-23T02:21:16;3.95;;;2.03;;
60873;SDS011;46715;40.642;-7.920;2023-05-23T02:23:17;2.93;;;1.80;;
60873;SDS011;46715;40.642;-7.920;2023-05-23T02:25:17;3.20;;;2.00;;
60873;SDS011;46715;40.642;-7.920;2023-05-23T02:27:18;2.30;;;1.70;;
60873;SDS011;46715;40.642;-7.920;2023-05-23T02:29:19;3.88;;;1.55;;
60873;SDS011;46715;40.642;-7.920;2023-05-23T02:31:21;5.38;;;1.90;;
60873;SDS011;46715;40.642;-7.920;2023-05-23T02:33:27;2.25;;;1.70;;
60873;SDS011;46715;40.642;-7.920;2023-05-23T02:35:28;4.83;;;1.70;;
60873;SDS011;46715;40.642;-7.920;2023-05-23T02:37:29;2.13;;;1.45;;
60873;SDS011;46715;40.642;-7.920;2023-05-23T02:39:30;2.45;;;1.50;;
60873;SDS011;46715;40.642;-7.920;2023-05-23T02:41:31;2.70;;;1.10;;
60873;SDS011;46715;40.642;-7.920;2023-05-23T02:43:32;2.03;;;1.15;;
60873;SDS011;46715;40.642;-7.920;2023-05-23T02:45:33;2.30;;;1.43;;
60873;SDS011;46715;40.642;-7.920;2023-05-23T02:47:34;2.03;;;1.27;;
60873;SDS011;46715;40.642;-7.920;2023-05-23T02:49:34;1.43;;;1.00;;
60873;SDS011;46715;40.642;-7.920;2023-05-23T02:51:35;1.17;;;1.00;;
60873;SDS011;46715;40.642;-7.920;2023-05-23T02:53:36;1.47;;;1.10;;
60873;SDS011;46715;40.642;-7.920;2023-05-23T02:55:37;1.90;;;1.08;;
60873;SDS011;46715;40.642;-7.920;2023-05-23T02:57:38;2.87;;;1.10;;
60873;SDS011;46715;40.642;-7.920;2023-05-23T02:59:39;1.87;;;1.27;;
60873;SDS011;46715;40.642;-7.920;2023-05-23T03:01:41;1.48;;;1.10;;
60873;SDS011;46715;40.642;-7.920;2023-05-23T03:03:41;3.23;;;0.90;;
60873;SDS011;46715;40.642;-7.920;2023-05-23T03:05:42;1.75;;;1.00;;
60873;SDS011;46715;40.642;-7.920;2023-05-23T03:07:44;1.17;;;0.90;;
60873;SDS011;46715;40.642;-7.920;2023-05-23T03:09:45;1.48;;;1.10;;
60873;SDS011;46715;40.642;-7.920;2023-05-23T03:11:46;1.13;;;0.80;;
60873;SDS011;46715;40.642;-7.920;2023-05-23T03:13:47;1.33;;;0.95;;
60873;SDS011;46715;40.642;-7.920;2023-05-23T03:15:48;1.37;;;1.03;;
60873;SDS011;46715;40.642;-7.920;2023-05-23T03:17:49;0.93;;;0.80;;
60873;SDS011;46715;40.642;-7.920;2023-05-23T03:19:51;1.15;;;0.82;;
60873;SDS011;46715;40.642;-7.920;2023-05-23T03:21:53;1.10;;;1.00;;
60873;SDS011;46715;40.642;-7.920;2023-05-23T03:23:53;1.93;;;1.10;;
60873;SDS011;46715;40.642;-7.920;2023-05-23T03:25:54;0.85;;;0.80;;
60873;SDS011;46715;40.642;-7.920;2023-05-23T03:27:55;1.73;;;1.27;;
60873;SDS011;46715;40.642;-7.920;2023-05-23T03:29:56;0.90;;;0.80;;
60873;SDS011;46715;40.642;-7.920;2023-05-23T03:31:57;1.47;;;1.20;;
60873;SDS011;46715;40.642;-7.920;2023-05-23T03:33:58;1.38;;;1.15;;
60873;SDS011;46715;40.642;-7.920;2023-05-23T03:35:59;2.87;;;1.20;;
60873;SDS011;46715;40.642;-7.920;2023-05-23T03:38:00;1.60;;;1.00;;
60873;SDS011;46715;40.642;-7.920;2023-05-23T03:40:00;2.07;;;1.10;;
60873;SDS011;46715;40.642;-7.920;2023-05-23T03:42:03;1.83;;;1.10;;
60873;SDS011;46715;40.642;-7.920;2023-05-23T03:44:05;1.55;;;1.02;;
60873;SDS011;46715;40.642;-7.920;2023-05-23T03:46:06;2.42;;;1.00;;
60873;SDS011;46715;40.642;-7.920;2023-05-23T03:48:07;1.40;;;1.10;;
60873;SDS011;46715;40.642;-7.920;2023-05-23T03:52:10;3.13;;;0.85;;
60873;SDS011;46715;40.642;-7.920;2023-05-23T03:54:12;1.48;;;1.00;;
60873;SDS011;46715;40.642;-7.920;2023-05-23T03:56:13;1.48;;;1.00;;
60873;SDS011;46715;40.642;-7.920;2023-05-23T03:58:14;1.10;;;1.00;;
60873;SDS011;46715;40.642;-7.920;2023-05-23T04:00:18;2.42;;;1.05;;
60873;SDS011;46715;40.642;-7.920;2023-05-23T04:02:22;1.50;;;0.98;;
60873;SDS011;46715;40.642;-7.920;2023-05-23T04:04:23;2.03;;;0.82;;
60873;SDS011;46715;40.642;-7.920;2023-05-23T04:06:26;0.85;;;0.85;;
60873;SDS011;46715;40.642;-7.920;2023-05-23T04:08:29;2.58;;;1.30;;
60873;SDS011;46715;40.642;-7.920;2023-05-23T04:10:33;1.63;;;1.13;;
60873;SDS011;46715;40.642;-7.920;2023-05-23T04:12:35;1.92;;;1.27;;
60873;SDS011;46715;40.642;-7.920;2023-05-23T04:14:41;2.63;;;1.35;;
60873;SDS011;46715;40.642;-7.920;2023-05-23T04:16:42;2.30;;;1.20;;
60873;SDS011;46715;40.642;-7.920;2023-05-23T04:18:44;1.20;;;1.00;;
60873;SDS011;46715;40.642;-7.920;2023-05-23T04:20:47;1.60;;;1.15;;
60873;SDS011;46715;40.642;-7.920;2023-05-23T04:22:48;1.83;;;1.33;;
60873;SDS011;46715;40.642;-7.920;2023-05-23T04:24:49;1.45;;;1.20;;
60873;SDS011;46715;40.642;-7.920;2023-05-23T04:26:51;2.03;;;1.10;;
60873;SDS011;46715;40.642;-7.920;2023-05-23T04:28:55;1.40;;;1.30;;
60873;SDS011;46715;40.642;-7.920;2023-05-23T04:30:57;1.33;;;1.00;;
60873;SDS011;46715;40.642;-7.920;2023-05-23T04:33:01;1.20;;;1.05;;
60873;SDS011;46715;40.642;-7.920;2023-05-23T04:35:03;1.63;;;1.33;;
60873;SDS011;46715;40.642;-7.920;2023-05-23T04:37:05;1.58;;;1.23;;
60873;SDS011;46715;40.642;-7.920;2023-05-23T04:39:06;1.38;;;1.15;;
60873;SDS011;46715;40.642;-7.920;2023-05-23T04:41:13;2.85;;;1.40;;
60873;SDS011;46715;40.642;-7.920;2023-05-23T04:43:24;1.92;;;1.20;;
60873;SDS011;46715;40.642;-7.920;2023-05-23T04:45:46;1.50;;;1.40;;
60873;SDS011;46715;40.642;-7.920;2023-05-23T04:48:11;1.60;;;1.33;;
60873;SDS011;46715;40.642;-7.920;2023-05-23T04:50:18;1.80;;;1.40;;
60873;SDS011;46715;40.642;-7.920;2023-05-23T04:52:21;1.70;;;1.40;;
60873;SDS011;46715;40.642;-7.920;2023-05-23T04:56:26;2.55;;;1.55;;
60873;SDS011;46715;40.642;-7.920;2023-05-23T04:58:28;1.92;;;1.50;;
60873;SDS011;46715;40.642;-7.920;2023-05-23T05:00:33;1.80;;;1.30;;
60873;SDS011;46715;40.642;-7.920;2023-05-23T05:02:35;1.60;;;1.40;;
60873;SDS011;46715;40.642;-7.920;2023-05-23T05:04:39;1.75;;;1.40;;
60873;SDS011;46715;40.642;-7.920;2023-05-23T05:06:40;1.73;;;1.42;;
60873;SDS011;46715;40.642;-7.920;2023-05-23T05:08:43;2.92;;;1.45;;
60873;SDS011;46715;40.642;-7.920;2023-05-23T05:10:45;1.77;;;1.38;;
60873;SDS011;46715;40.642;-7.920;2023-05-23T05:12:46;1.77;;;1.48;;
60873;SDS011;46715;40.642;-7.920;2023-05-23T05:14:51;2.47;;;1.67;;
60873;SDS011;46715;40.642;-7.920;2023-05-23T05:16:52;1.92;;;1.60;;
60873;SDS011;46715;40.642;-7.920;2023-05-23T05:18:59;2.53;;;1.85;;
60873;SDS011;46715;40.642;-7.920;2023-05-23T05:21:01;3.08;;;1.63;;
60873;SDS011;46715;40.642;-7.920;2023-05-23T05:23:03;1.50;;;1.33;;
60873;SDS011;46715;40.642;-7.920;2023-05-23T05:25:04;1.73;;;1.38;;
60873;SDS011;46715;40.642;-7.920;2023-05-23T05:27:09;2.15;;;1.83;;
60873;SDS011;46715;40.642;-7.920;2023-05-23T05:29:11;2.28;;;1.83;;
60873;SDS011;46715;40.642;-7.920;2023-05-23T05:31:12;2.67;;;2.00;;
60873;SDS011;46715;40.642;-7.920;2023-05-23T05:33:15;4.35;;;1.45;;
60873;SDS011;46715;40.642;-7.920;2023-05-23T05:35:18;2.90;;;1.38;;
60873;SDS011;46715;40.642;-7.920;2023-05-23T05:37:20;2.70;;;1.45;;
60873;SDS011;46715;40.642;-7.920;2023-05-23T05:39:23;2.00;;;1.70;;
60873;SDS011;46715;40.642;-7.920;2023-05-23T05:41:25;1.60;;;1.35;;
60873;SDS011;46715;40.642;-7.920;2023-05-23T05:43:27;1.50;;;1.30;;
60873;SDS011;46715;40.642;-7.920;2023-05-23T05:45:28;1.48;;;1.10;;
60873;SDS011;46715;40.642;-7.920;2023-05-23T05:47:28;2.17;;;1.50;;
60873;SDS011;46715;40.642;-7.920;2023-05-23T05:49:30;1.42;;;1.20;;
60873;SDS011;46715;40.642;-7.920;2023-05-23T05:51:31;1.98;;;1.48;;
60873;SDS011;46715;40.642;-7.920;2023-05-23T05:53:32;1.67;;;1.55;;
60873;SDS011;46715;40.642;-7.920;2023-05-23T05:55:34;2.92;;;1.60;;
60873;SDS011;46715;40.642;-7.920;2023-05-23T05:57:35;2.97;;;1.17;;
60873;SDS011;46715;40.642;-7.920;2023-05-23T05:59:38;1.42;;;1.10;;
60873;SDS011;46715;40.642;-7.920;2023-05-23T06:01:39;1.47;;;1.17;;
60873;SDS011;46715;40.642;-7.920;2023-05-23T06:03:40;3.13;;;1.17;;
60873;SDS011;46715;40.642;-7.920;2023-05-23T06:05:41;1.30;;;1.20;;
60873;SDS011;46715;40.642;-7.920;2023-05-23T06:07:42;1.48;;;1.33;;
60873;SDS011;46715;40.642;-7.920;2023-05-23T06:09:43;2.00;;;1.40;;
60873;SDS011;46715;40.642;-7.920;2023-05-23T06:11:45;1.73;;;1.20;;
60873;SDS011;46715;40.642;-7.920;2023-05-23T06:13:46;1.50;;;1.40;;
60873;SDS011;46715;40.642;-7.920;2023-05-23T06:15:47;1.73;;;1.30;;
60873;SDS011;46715;40.642;-7.920;2023-05-23T06:17:47;2.60;;;1.40;;
60873;SDS011;46715;40.642;-7.920;2023-05-23T06:19:48;1.90;;;1.33;;
60873;SDS011;46715;40.642;-7.920;2023-05-23T06:21:49;1.53;;;1.20;;
60873;SDS011;46715;40.642;-7.920;2023-05-23T06:23:50;2.25;;;1.20;;
60873;SDS011;46715;40.642;-7.920;2023-05-23T06:25:52;1.98;;;1.35;;
60873;SDS011;46715;40.642;-7.920;2023-05-23T06:27:53;3.45;;;1.23;;
60873;SDS011;46715;40.642;-7.920;2023-05-23T06:29:53;1.57;;;1.30;;
60873;SDS011;46715;40.642;-7.920;2023-05-23T06:33:56;2.25;;;1.27;;
60873;SDS011;46715;40.642;-7.920;2023-05-23T06:35:57;1.43;;;1.23;;
60873;SDS011;46715;40.642;-7.920;2023-05-23T06:37:57;1.43;;;1.33;;
60873;SDS011;46715;40.642;-7.920;2023-05-23T06:39:59;1.42;;;1.25;;
60873;SDS011;46715;40.642;-7.920;2023-05-23T06:42:00;1.70;;;1.10;;
60873;SDS011;46715;40.642;-7.920;2023-05-23T06:44:10;1.52;;;1.30;;
60873;SDS011;46715;40.642;-7.920;2023-05-23T06:46:15;2.53;;;1.40;;
60873;SDS011;46715;40.642;-7.920;2023-05-23T06:50:18;1.38;;;1.13;;
60873;SDS011;46715;40.642;-7.920;2023-05-23T06:52:19;3.47;;;1.42;;
60873;SDS011;46715;40.642;-7.920;2023-05-23T06:54:20;1.65;;;1.50;;
60873;SDS011;46715;40.642;-7.920;2023-05-23T06:56:22;3.80;;;1.70;;
60873;SDS011;46715;40.642;-7.920;2023-05-23T06:58:28;1.90;;;1.70;;
60873;SDS011;46715;40.642;-7.920;2023-05-23T07:00:32;2.92;;;1.75;;
60873;SDS011;46715;40.642;-7.920;2023-05-23T07:02:43;3.45;;;1.80;;
60873;SDS011;46715;40.642;-7.920;2023-05-23T07:04:50;1.98;;;1.60;;
60873;SDS011;46715;40.642;-7.920;2023-05-23T07:07:09;2.40;;;1.88;;
60873;SDS011;46715;40.642;-7.920;2023-05-23T07:09:10;1.90;;;1.70;;
60873;SDS011;46715;40.642;-7.920;2023-05-23T07:11:13;5.05;;;1.70;;
60873;SDS011;46715;40.642;-7.920;2023-05-23T07:13:17;2.72;;;1.90;;
60873;SDS011;46715;40.642;-7.920;2023-05-23T07:15:18;2.60;;;1.70;;
60873;SDS011;46715;40.642;-7.920;2023-05-23T07:17:42;2.80;;;2.10;;
60873;SDS011;46715;40.642;-7.920;2023-05-23T07:19:45;2.40;;;1.95;;
60873;SDS011;46715;40.642;-7.920;2023-05-23T07:21:46;3.33;;;1.90;;
60873;SDS011;46715;40.642;-7.920;2023-05-23T07:23:50;3.15;;;2.20;;
60873;SDS011;46715;40.642;-7.920;2023-05-23T07:25:51;11.32;;;6.93;;
60873;SDS011;46715;40.642;-7.920;2023-05-23T07:27:58;9.32;;;5.43;;
60873;SDS011;46715;40.642;-7.920;2023-05-23T07:29:59;3.83;;;2.22;;
60873;SDS011;46715;40.642;-7.920;2023-05-23T07:32:00;2.42;;;2.13;;
60873;SDS011;46715;40.642;-7.920;2023-05-23T07:36:12;3.67;;;2.03;;
60873;SDS011;46715;40.642;-7.920;2023-05-23T07:38:13;2.97;;;2.30;;
60873;SDS011;46715;40.642;-7.920;2023-05-23T07:42:16;5.10;;;2.53;;
60873;SDS011;46715;40.642;-7.920;2023-05-23T07:44:17;4.32;;;2.63;;
60873;SDS011;46715;40.642;-7.920;2023-05-23T07:46:18;2.45;;;1.60;;
60873;SDS011;46715;40.642;-7.920;2023-05-23T07:48:22;2.60;;;1.90;;
60873;SDS011;46715;40.642;-7.920;2023-05-23T07:50:22;2.75;;;1.50;;
60873;SDS011;46715;40.642;-7.920;2023-05-23T07:54:25;3.57;;;1.73;;
60873;SDS011;46715;40.642;-7.920;2023-05-23T07:56:33;1.70;;;1.02;;
60873;SDS011;46715;40.642;-7.920;2023-05-23T07:58:34;3.10;;;1.65;;
60873;SDS011;46715;40.642;-7.920;2023-05-23T08:00:35;2.25;;;1.48;;
60873;SDS011;46715;40.642;-7.920;2023-05-23T08:02:44;3.97;;;1.83;;
60873;SDS011;46715;40.642;-7.920;2023-05-23T08:04:53;4.10;;;1.85;;
60873;SDS011;46715;40.642;-7.920;2023-05-23T08:06:56;3.67;;;1.83;;
60873;SDS011;46715;40.642;-7.920;2023-05-23T08:09:01;2.88;;;1.55;;
60873;SDS011;46715;40.642;-7.920;2023-05-23T08:11:03;2.88;;;1.70;;
60873;SDS011;46715;40.642;-7.920;2023-05-23T08:13:13;6.28;;;1.92;;
60873;SDS011;46715;40.642;-7.920;2023-05-23T08:15:27;3.40;;;1.85;;
60873;SDS011;46715;40.642;-7.920;2023-05-23T08:17:38;5.07;;;1.42;;
60873;SDS011;46715;40.642;-7.920;2023-05-23T08:19:39;2.13;;;1.48;;
60873;SDS011;46715;40.642;-7.920;2023-05-23T08:21:42;2.38;;;1.20;;
60873;SDS011;46715;40.642;-7.920;2023-05-23T08:25:44;4.57;;;1.57;;
60873;SDS011;46715;40.642;-7.920;2023-05-23T08:27:45;1.67;;;1.20;;
60873;SDS011;46715;40.642;-7.920;2023-05-23T08:30:09;3.50;;;1.58;;
60873;SDS011;46715;40.642;-7.920;2023-05-23T08:32:11;5.25;;;2.00;;
60873;SDS011;46715;40.642;-7.920;2023-05-23T08:34:14;2.22;;;1.83;;
60873;SDS011;46715;40.642;-7.920;2023-05-23T08:36:18;1.48;;;1.27;;
60873;SDS011;46715;40.642;-7.920;2023-05-23T08:38:24;1.60;;;1.35;;
60873;SDS011;46715;40.642;-7.920;2023-05-23T08:40:55;2.35;;;1.50;;
60873;SDS011;46715;40.642;-7.920;2023-05-23T08:43:03;3.40;;;1.67;;
60873;SDS011;46715;40.642;-7.920;2023-05-23T08:45:04;2.10;;;1.38;;
60873;SDS011;46715;40.642;-7.920;2023-05-23T08:47:06;1.52;;;1.20;;
60873;SDS011;46715;40.642;-7.920;2023-05-23T08:49:34;3.20;;;1.67;;
60873;SDS011;46715;40.642;-7.920;2023-05-23T08:51:36;4.60;;;1.58;;
60873;SDS011;46715;40.642;-7.920;2023-05-23T08:53:45;2.40;;;1.70;;
60873;SDS011;46715;40.642;-7.920;2023-05-23T08:55:55;3.22;;;1.60;;
60873;SDS011;46715;40.642;-7.920;2023-05-23T08:58:12;1.73;;;1.30;;
60873;SDS011;46715;40.642;-7.920;2023-05-23T09:00:20;2.92;;;1.85;;
60873;SDS011;46715;40.642;-7.920;2023-05-23T09:02:23;2.72;;;1.70;;
60873;SDS011;46715;40.642;-7.920;2023-05-23T09:04:28;4.15;;;2.33;;
60873;SDS011;46715;40.642;-7.920;2023-05-23T09:06:34;2.40;;;1.83;;
60873;SDS011;46715;40.642;-7.920;2023-05-23T09:08:37;3.35;;;1.40;;
60873;SDS011;46715;40.642;-7.920;2023-05-23T09:10:38;2.63;;;1.65;;
60873;SDS011;46715;40.642;-7.920;2023-05-23T09:12:44;5.22;;;1.95;;
60873;SDS011;46715;40.642;-7.920;2023-05-23T09:14:46;3.05;;;1.67;;
60873;SDS011;46715;40.642;-7.920;2023-05-23T09:16:48;8.93;;;2.03;;
60873;SDS011;46715;40.642;-7.920;2023-05-23T09:18:50;6.95;;;1.75;;
60873;SDS011;46715;40.642;-7.920;2023-05-23T09:20:54;2.55;;;1.63;;
60873;SDS011;46715;40.642;-7.920;2023-05-23T09:22:55;3.03;;;2.03;;
60873;SDS011;46715;40.642;-7.920;2023-05-23T09:25:00;4.53;;;1.83;;
60873;SDS011;46715;40.642;-7.920;2023-05-23T09:27:04;6.88;;;1.70;;
60873;SDS011;46715;40.642;-7.920;2023-05-23T09:29:06;4.35;;;1.45;;
60873;SDS011;46715;40.642;-7.920;2023-05-23T09:31:07;4.88;;;2.00;;
60873;SDS011;46715;40.642;-7.920;2023-05-23T09:33:09;4.45;;;1.77;;
60873;SDS011;46715;40.642;-7.920;2023-05-23T09:35:13;4.18;;;1.60;;
60873;SDS011;46715;40.642;-7.920;2023-05-23T09:37:15;2.00;;;1.80;;
60873;SDS011;46715;40.642;-7.920;2023-05-23T09:39:18;2.58;;;1.70;;
60873;SDS011;46715;40.642;-7.920;2023-05-23T09:41:20;2.95;;;1.85;;
60873;SDS011;46715;40.642;-7.920;2023-05-23T09:43:24;2.53;;;1.60;;
60873;SDS011;46715;40.642;-7.920;2023-05-23T09:45:28;2.78;;;1.67;;
60873;SDS011;46715;40.642;-7.920;2023-05-23T09:47:30;3.25;;;2.05;;
60873;SDS011;46715;40.642;-7.920;2023-05-23T09:49:32;3.92;;;1.88;;
60873;SDS011;46715;40.642;-7.920;2023-05-23T09:51:34;3.78;;;2.53;;
60873;SDS011;46715;40.642;-7.920;2023-05-23T09:53:39;5.70;;;2.10;;
60873;SDS011;46715;40.642;-7.920;2023-05-23T09:55:40;3.15;;;2.10;;
60873;SDS011;46715;40.642;-7.920;2023-05-23T09:57:42;2.75;;;1.80;;
60873;SDS011;46715;40.642;-7.920;2023-05-23T09:59:51;5.28;;;1.83;;
60873;SDS011;46715;40.642;-7.920;2023-05-23T10:01:55;2.22;;;1.90;;
60873;SDS011;46715;40.642;-7.920;2023-05-23T10:03:58;3.00;;;1.83;;
60873;SDS011;46715;40.642;-7.920;2023-05-23T10:06:00;2.63;;;1.88;;
60873;SDS011;46715;40.642;-7.920;2023-05-23T10:08:09;6.82;;;1.77;;
60873;SDS011;46715;40.642;-7.920;2023-05-23T10:10:30;5.95;;;2.05;;
60873;SDS011;46715;40.642;-7.920;2023-05-23T10:12:41;3.20;;;2.35;;
60873;SDS011;46715;40.642;-7.920;2023-05-23T10:14:48;3.60;;;1.80;;
60873;SDS011;46715;40.642;-7.920;2023-05-23T10:17:06;2.67;;;1.90;;
60873;SDS011;46715;40.642;-7.920;2023-05-23T10:19:16;3.22;;;1.92;;
60873;SDS011;46715;40.642;-7.920;2023-05-23T10:21:28;3.80;;;2.25;;
60873;SDS011;46715;40.642;-7.920;2023-05-23T10:23:32;4.88;;;2.05;;
60873;SDS011;46715;40.642;-7.920;2023-05-23T10:25:33;3.92;;;2.50;;
60873;SDS011;46715;40.642;-7.920;2023-05-23T10:27:39;3.22;;;2.08;;
60873;SDS011;46715;40.642;-7.920;2023-05-23T10:29:41;4.82;;;2.35;;
60873;SDS011;46715;40.642;-7.920;2023-05-23T10:31:45;5.70;;;2.30;;
60873;SDS011;46715;40.642;-7.920;2023-05-23T10:33:49;2.80;;;2.03;;
60873;SDS011;46715;40.642;-7.920;2023-05-23T10:35:56;4.47;;;2.13;;
60873;SDS011;46715;40.642;-7.920;2023-05-23T10:45:19;5.95;;;2.40;;
60873;SDS011;46715;40.642;-7.920;2023-05-23T10:47:26;2.53;;;2.17;;
60873;SDS011;46715;40.642;-7.920;2023-05-23T10:49:36;2.65;;;2.05;;
60873;SDS011;46715;40.642;-7.920;2023-05-23T10:51:46;3.63;;;2.08;;
60873;SDS011;46715;40.642;-7.920;2023-05-23T10:53:52;5.38;;;2.10;;
60873;SDS011;46715;40.642;-7.920;2023-05-23T10:55:54;6.75;;;2.17;;
60873;SDS011;46715;40.642;-7.920;2023-05-23T10:58:11;4.55;;;1.90;;
60873;SDS011;46715;40.642;-7.920;2023-05-23T11:00:22;3.15;;;2.10;;
60873;SDS011;46715;40.642;-7.920;2023-05-23T11:02:25;3.72;;;2.15;;
60873;SDS011;46715;40.642;-7.920;2023-05-23T11:04:27;3.55;;;2.20;;
60873;SDS011;46715;40.642;-7.920;2023-05-23T11:06:30;4.68;;;2.40;;
60873;SDS011;46715;40.642;-7.920;2023-05-23T11:08:42;6.50;;;1.98;;
60873;SDS011;46715;40.642;-7.920;2023-05-23T11:10:53;6.18;;;1.98;;
60873;SDS011;46715;40.642;-7.920;2023-05-23T11:13:05;3.15;;;1.88;;
60873;SDS011;46715;40.642;-7.920;2023-05-23T11:17:18;4.57;;;1.80;;
60873;SDS011;46715;40.642;-7.920;2023-05-23T11:19:30;2.95;;;2.38;;
60873;SDS011;46715;40.642;-7.920;2023-05-23T11:21:31;2.35;;;1.95;;
60873;SDS011;46715;40.642;-7.920;2023-05-23T11:23:39;2.95;;;2.10;;
60873;SDS011;46715;40.642;-7.920;2023-05-23T11:27:45;3.05;;;1.98;;
60873;SDS011;46715;40.642;-7.920;2023-05-23T11:32:12;3.80;;;2.20;;
60873;SDS011;46715;40.642;-7.920;2023-05-23T11:34:13;2.40;;;1.90;;
60873;SDS011;46715;40.642;-7.920;2023-05-23T11:36:14;2.33;;;2.00;;
60873;SDS011;46715;40.642;-7.920;2023-05-23T11:38:15;2.45;;;1.90;;
60873;SDS011;46715;40.642;-7.920;2023-05-23T11:40:26;2.92;;;2.35;;
60873;SDS011;46715;40.642;-7.920;2023-05-23T11:42:32;6.53;;;2.05;;
60873;SDS011;46715;40.642;-7.920;2023-05-23T11:44:33;3.97;;;1.75;;
60873;SDS011;46715;40.642;-7.920;2023-05-23T11:46:33;3.63;;;2.10;;
60873;SDS011;46715;40.642;-7.920;2023-05-23T11:48:45;3.28;;;2.08;;
60873;SDS011;46715;40.642;-7.920;2023-05-23T11:50:52;2.85;;;2.15;;
60873;SDS011;46715;40.642;-7.920;2023-05-23T11:52:53;4.95;;;2.33;;
60873;SDS011;46715;40.642;-7.920;2023-05-23T11:54:54;3.08;;;2.05;;
60873;SDS011;46715;40.642;-7.920;2023-05-23T11:56:56;3.55;;;2.30;;
60873;SDS011;46715;40.642;-7.920;2023-05-23T11:58:57;4.10;;;2.35;;
60873;SDS011;46715;40.642;-7.920;2023-05-23T12:01:08;4.40;;;2.22;;
60873;SDS011;46715;40.642;-7.920;2023-05-23T12:03:11;4.07;;;2.40;;
60873;SDS011;46715;40.642;-7.920;2023-05-23T12:05:13;4.43;;;2.50;;
60873;SDS011;46715;40.642;-7.920;2023-05-23T12:07:17;4.45;;;2.53;;
60873;SDS011;46715;40.642;-7.920;2023-05-23T12:09:19;5.35;;;2.25;;
60873;SDS011;46715;40.642;-7.920;2023-05-23T12:11:20;3.10;;;1.90;;
60873;SDS011;46715;40.642;-7.920;2023-05-23T12:13:24;4.63;;;3.28;;
60873;SDS011;46715;40.642;-7.920;2023-05-23T12:15:27;3.03;;;2.15;;
60873;SDS011;46715;40.642;-7.920;2023-05-23T12:17:29;3.13;;;1.77;;
60873;SDS011;46715;40.642;-7.920;2023-05-23T12:19:32;5.60;;;2.33;;
60873;SDS011;46715;40.642;-7.920;2023-05-23T12:22:06;3.63;;;2.45;;
60873;SDS011;46715;40.642;-7.920;2023-05-23T12:24:21;3.22;;;2.25;;
60873;SDS011;46715;40.642;-7.920;2023-05-23T12:26:22;3.70;;;2.30;;
60873;SDS011;46715;40.642;-7.920;2023-05-23T12:28:33;3.33;;;1.95;;
60873;SDS011;46715;40.642;-7.920;2023-05-23T12:30:40;5.88;;;2.13;;
60873;SDS011;46715;40.642;-7.920;2023-05-23T12:32:43;3.30;;;2.47;;
60873;SDS011;46715;40.642;-7.920;2023-05-23T12:34:45;2.88;;;2.25;;
60873;SDS011;46715;40.642;-7.920;2023-05-23T12:36:48;3.38;;;2.47;;
60873;SDS011;46715;40.642;-7.920;2023-05-23T12:38:50;3.05;;;2.53;;
60873;SDS011;46715;40.642;-7.920;2023-05-23T12:41:07;4.82;;;2.28;;
60873;SDS011;46715;40.642;-7.920;2023-05-23T12:43:18;5.90;;;2.38;;
60873;SDS011;46715;40.642;-7.920;2023-05-23T12:45:20;4.50;;;4.10;;
60873;SDS011;46715;40.642;-7.920;2023-05-23T12:47:23;5.18;;;2.25;;
60873;SDS011;46715;40.642;-7.920;2023-05-23T12:49:24;2.67;;;2.10;;
60873;SDS011;46715;40.642;-7.920;2023-05-23T12:51:25;6.78;;;2.13;;
60873;SDS011;46715;40.642;-7.920;2023-05-23T12:53:26;3.60;;;1.90;;
60873;SDS011;46715;40.642;-7.920;2023-05-23T12:55:30;2.80;;;1.98;;
60873;SDS011;46715;40.642;-7.920;2023-05-23T12:57:33;5.60;;;2.42;;
60873;SDS011;46715;40.642;-7.920;2023-05-23T12:59:34;4.40;;;2.33;;
60873;SDS011;46715;40.642;-7.920;2023-05-23T13:01:35;4.00;;;2.15;;